Time;durP1;ratioP1;P1;durP2;ratioP2;P2;SDS_P1;SDS_P2;PMS_P1;PMS_P2;Temp;Humidity;BMP_temperature;BMP_pressure;BME280_temperature;BME280_humidity;BME280_pressure;Samples;Min_cycle;Max_cycle;Signal;HPM_P1;HPM_P2
2022/06/14 00:03:29;;;;;;;4.40;4.20;;;;;;;10.34;87.81;101913.84;6080909;23;20022;-70
2022/06/14 00:05:58;;;;;;;5.88;5.53;;;;;;;10.15;87.20;101889.91;6054768;23;20432;-73
2022/06/14 00:08:26;;;;;;;4.40;4.20;;;;;;;10.26;87.89;101919.28;6049622;23;20522;-67
2022/06/14 00:10:55;;;;;;;4.50;4.30;;;;;;;10.25;88.05;101924.59;6079029;23;20073;-68
2022/06/14 00:13:23;;;;;;;4.32;4.13;;;;;;;10.22;88.54;101914.19;6045370;23;20033;-68
2022/06/14 00:15:49;;;;;;;4.30;4.10;;;;;;;10.15;88.77;101905.66;6071603;23;20050;-68
2022/06/14 00:18:17;;;;;;;5.43;5.22;;;;;;;10.19;89.04;101916.00;6045385;23;20018;-67
2022/06/14 00:20:45;;;;;;;4.50;4.30;;;;;;;10.18;89.19;101916.94;6076328;23;20467;-66
2022/06/14 00:23:12;;;;;;;6.25;5.95;;;;;;;10.18;88.24;101919.53;6046609;23;20153;-67
2022/06/14 00:25:42;;;;;;;4.15;3.95;;;;;;;10.14;88.96;101920.53;6079861;23;20313;-67
2022/06/14 00:28:11;;;;;;;5.30;5.10;;;;;;;9.99;89.36;101893.00;6040867;23;20078;-67
2022/06/14 00:30:39;;;;;;;4.40;4.20;;;;;;;10.10;89.82;101915.41;6070875;23;20358;-67
2022/06/14 00:33:06;;;;;;;4.85;4.65;;;;;;;10.05;90.42;101905.06;6041251;23;20011;-67
2022/06/14 00:35:32;;;;;;;4.47;4.28;;;;;;;9.92;90.71;101888.00;6066109;23;20018;-67
2022/06/14 00:38:00;;;;;;;4.65;4.45;;;;;;;10.04;90.46;101915.59;6050629;23;20030;-67
2022/06/14 00:40:30;;;;;;;4.60;4.40;;;;;;;10.01;91.00;101913.94;6052208;23;20026;-67
2022/06/14 00:43:02;;;;;;;4.57;4.38;;;;;;;9.98;91.33;101909.66;6049754;23;20090;-66
2022/06/14 00:45:29;;;;;;;4.20;4.00;;;;;;;9.94;91.78;101915.91;6059475;23;20022;-66
2022/06/14 00:48:02;;;;;;;4.20;4.00;;;;;;;9.92;91.90;101914.22;6043770;23;20150;-66
2022/06/14 00:50:44;;;;;;;4.30;4.10;;;;;;;9.86;91.80;101912.66;6051735;23;20011;-67
2022/06/14 00:53:20;;;;;;;6.10;5.80;;;;;;;9.80;91.97;101910.19;6057573;23;20021;-67
2022/06/14 00:56:02;;;;;;;4.18;3.97;;;;;;;9.75;92.54;101902.47;6074131;23;20372;-66
2022/06/14 00:58:36;;;;;;;4.32;4.13;;;;;;;9.53;93.50;101868.16;6040046;23;20043;-67
2022/06/14 01:01:09;;;;;;;5.15;4.95;;;;;;;9.52;93.60;101873.44;6075419;23;20687;-66
2022/06/14 01:03:50;;;;;;;4.20;4.00;;;;;;;9.54;93.21;101877.75;6029872;23;20085;-68
2022/06/14 01:06:27;;;;;;;4.50;4.30;;;;;;;9.61;93.73;101898.53;6078044;23;20093;-67
2022/06/14 01:09:06;;;;;;;4.18;3.97;;;;;;;9.57;93.62;101895.16;6044302;23;20011;-73
2022/06/14 01:11:42;;;;;;;4.20;4.00;;;;;;;9.53;94.66;101889.13;6061106;23;20025;-67
2022/06/14 01:14:10;;;;;;;5.45;5.25;;;;;;;9.49;94.98;101890.13;6049620;23;20011;-66
2022/06/14 01:16:37;;;;;;;4.85;4.65;;;;;;;9.44;95.35;101894.66;6075948;23;20017;-66
2022/06/14 01:19:14;;;;;;;5.75;5.53;;;;;;;9.43;95.34;101885.06;6046915;23;20074;-66
2022/06/14 01:21:40;;;;;;;4.20;4.00;;;;;;;9.42;94.99;101890.34;6071391;23;20018;-69
2022/06/14 01:24:07;;;;;;;4.13;3.92;;;;;;;9.38;95.44;101894.78;6040605;23;20018;-68
2022/06/14 01:26:34;;;;;;;4.60;4.30;;;;;;;9.01;95.78;101830.34;6073462;23;20352;-68
2022/06/14 01:29:04;;;;;;;4.75;4.55;;;;;;;9.34;94.91;101886.19;6041649;23;20022;-68
2022/06/14 01:31:32;;;;;;;4.20;4.00;;;;;;;9.12;95.66;101854.50;6077497;23;20018;-70
2022/06/14 01:34:04;;;;;;;4.35;4.15;;;;;;;9.25;95.49;101875.09;6079035;23;20021;-67
2022/06/14 01:36:34;;;;;;;4.10;3.90;;;;;;;9.08;95.71;101845.00;6048451;23;20396;-68
2022/06/14 01:39:05;;;;;;;5.53;5.30;;;;;;;9.14;95.87;101871.00;6082538;23;20028;-68
2022/06/14 01:41:58;;;;;;;4.30;4.10;;;;;;;9.25;96.12;101893.44;6051728;23;20480;-68
2022/06/14 01:44:42;;;;;;;4.10;3.90;;;;;;;9.23;96.95;101893.47;6074242;23;20480;-68
2022/06/14 01:47:09;;;;;;;5.70;5.47;;;;;;;9.21;97.47;101883.94;6044370;23;20546;-68
2022/06/14 01:53:10;;;;;;;4.30;4.10;;;;;;;9.23;96.53;101890.84;6064838;23;20013;-67
2022/06/14 01:55:47;;;;;;;4.10;3.90;;;;;;;9.22;96.54;101890.88;6038069;23;20038;-68
2022/06/14 01:58:25;;;;;;;7.00;6.70;;;;;;;9.25;96.05;101886.44;5958823;23;20344;-68
2022/06/14 02:00:55;;;;;;;4.20;4.00;;;;;;;9.27;96.02;101889.00;6050921;23;20049;-66
2022/06/14 02:06:52;;;;;;;3.97;3.80;;;;;;;9.23;95.19;101890.00;6065452;23;20487;-68
2022/06/14 02:09:24;;;;;;;3.80;3.70;;;;;;;9.26;95.10;101889.91;6043665;23;20020;-70
2022/06/14 02:11:50;;;;;;;4.13;3.92;;;;;;;9.23;95.64;101890.00;6048259;23;20562;-66
2022/06/14 02:14:30;;;;;;;4.80;4.60;;;;;;;9.06;95.54;101859.91;6087320;23;20337;-68
2022/06/14 02:17:17;;;;;;;4.00;3.80;;;;;;;9.07;95.06;101864.22;6078698;23;20561;-68
2022/06/14 02:19:57;;;;;;;4.25;4.05;;;;;;;9.10;95.45;101877.25;6070567;23;20487;-68
2022/06/14 02:22:38;;;;;;;4.65;4.45;;;;;;;9.18;95.90;101890.97;6015848;23;20475;-69
2022/06/14 02:25:10;;;;;;;5.55;5.35;;;;;;;9.15;95.91;101893.66;6056312;23;20018;-67
2022/06/14 02:27:48;;;;;;;4.00;3.80;;;;;;;8.97;96.35;101854.91;6080892;23;20502;-65
2022/06/14 02:30:22;;;;;;;4.90;4.70;;;;;;;9.10;96.46;101885.09;6050709;23;21046;-68
2022/06/14 02:32:59;;;;;;;3.85;3.72;;;;;;;8.93;96.75;101848.03;6055142;23;20085;-66
2022/06/14 02:35:33;;;;;;;3.70;3.60;;;;;;;9.07;97.34;101879.94;6048224;23;20233;-68
2022/06/14 02:38:12;;;;;;;4.97;4.78;;;;;;;9.09;97.27;101882.50;6080296;23;20024;-69
2022/06/14 02:40:45;;;;;;;4.10;3.90;;;;;;;9.08;96.42;101878.16;6051066;23;20046;-66
2022/06/14 02:43:40;;;;;;;4.20;4.00;;;;;;;9.07;96.20;101881.69;6044276;23;20043;-68
2022/06/14 02:46:48;;;;;;;5.68;5.45;;;;;;;9.05;96.10;101875.63;6059984;23;20093;-69
2022/06/14 02:49:23;;;;;;;5.43;5.22;;;;;;;8.99;97.69;101866.19;6050230;23;20022;-66
2022/06/14 02:51:55;;;;;;;4.55;4.35;;;;;;;8.71;97.24;101827.66;6066364;23;20010;-70
2022/06/14 02:54:34;;;;;;;4.18;3.97;;;;;;;8.66;98.40;101831.28;6067118;23;20941;-71
2022/06/14 02:57:07;;;;;;;5.40;5.20;;;;;;;8.88;98.88;101870.84;6060413;23;20016;-74
2022/06/14 02:59:42;;;;;;;4.20;4.00;;;;;;;8.85;98.20;101873.56;6081735;23;20072;-73
2022/06/14 03:02:24;;;;;;;5.82;5.57;;;;;;;8.65;98.49;101840.88;6074674;23;20376;-72
2022/06/14 03:04:56;;;;;;;4.05;3.88;;;;;;;8.75;99.35;101872.94;6059170;23;20030;-67
2022/06/14 03:07:31;;;;;;;4.00;3.80;;;;;;;8.69;100.00;101865.22;6054851;23;20038;-66
2022/06/14 03:09:59;;;;;;;4.20;4.00;;;;;;;8.64;100.00;101860.13;6049529;23;20019;-74
2022/06/14 03:12:36;;;;;;;4.40;4.20;;;;;;;8.48;100.00;101833.50;6057276;23;20361;-72
2022/06/14 03:15:05;;;;;;;5.05;4.85;;;;;;;8.63;100.00;101863.63;6055492;23;20113;-73
2022/06/14 03:17:54;;;;;;;4.20;4.00;;;;;;;8.63;100.00;101863.63;6040005;23;20504;-73
2022/06/14 03:21:04;;;;;;;4.18;3.97;;;;;;;8.60;100.00;101858.50;6083103;23;20025;-71
2022/06/14 03:23:40;;;;;;;4.30;4.10;;;;;;;8.26;100.00;101814.81;6050677;23;20093;-72
2022/06/14 03:26:17;;;;;;;4.30;4.10;;;;;;;8.59;100.00;101862.84;6071969;23;20014;-70
2022/06/14 03:28:52;;;;;;;4.07;3.88;;;;;;;8.59;100.00;101867.22;6052529;23;20034;-71
2022/06/14 03:31:38;;;;;;;3.95;3.78;;;;;;;8.59;100.00;101859.38;6070803;23;20020;-71
2022/06/14 03:34:14;;;;;;;6.05;5.75;;;;;;;8.61;100.00;101867.19;6009614;23;20207;-65
2022/06/14 03:36:41;;;;;;;3.92;3.78;;;;;;;8.60;100.00;101889.88;6070739;23;20139;-66
2022/06/14 03:39:16;;;;;;;5.70;5.50;;;;;;;8.59;100.00;101861.97;6043394;23;20029;-72
2022/06/14 03:41:47;;;;;;;4.13;3.92;;;;;;;8.42;100.00;101831.03;6061777;23;20444;-69
2022/06/14 03:44:15;;;;;;;5.93;5.65;;;;;;;8.61;100.00;101854.97;6046402;23;20428;-73
2022/06/14 03:47:08;;;;;;;4.32;4.13;;;;;;;8.37;100.00;101820.63;6083929;23;20409;-73
2022/06/14 03:49:38;;;;;;;4.22;4.03;;;;;;;8.65;100.00;101860.97;6037647;23;20042;-72
2022/06/14 03:52:24;;;;;;;5.60;5.40;;;;;;;8.49;100.00;101829.09;6080472;23;20026;-66
2022/06/14 03:55:25;;;;;;;4.00;3.80;;;;;;;8.76;100.00;101859.81;6022447;23;20015;-69
2022/06/14 03:58:37;;;;;;;13.68;4.82;;;;;;;8.83;100.00;101860.50;6039313;23;20424;-72
2022/06/14 04:01:22;;;;;;;5.73;5.50;;;;;;;8.90;100.00;101864.69;5956792;23;20077;-67
2022/06/14 04:04:07;;;;;;;4.43;4.22;;;;;;;8.96;100.00;101861.00;5981177;23;20490;-72
2022/06/14 04:07:09;;;;;;;4.15;3.95;;;;;;;9.04;100.00;101851.22;6052216;23;20550;-67
2022/06/14 04:09:59;;;;;;;4.30;4.10;;;;;;;9.45;100.00;101857.03;6048124;23;20456;-66
2022/06/14 04:12:43;;;;;;;4.30;4.10;;;;;;;10.22;97.58;101861.72;6026440;23;20077;-67
2022/06/14 04:15:42;;;;;;;5.43;5.13;;;;;;;10.93;90.83;101849.75;6079733;23;20024;-66
2022/06/14 04:18:36;;;;;;;5.88;5.60;;;;;;;11.98;85.13;101858.09;5979708;23;20025;-66
2022/06/14 04:21:10;;;;;;;5.43;5.22;;;;;;;12.90;80.05;101860.50;6075471;23;20033;-67
2022/06/14 04:23:51;;;;;;;4.20;4.00;;;;;;;13.63;76.18;101850.22;6056102;23;20026;-68
2022/06/14 04:26:39;;;;;;;4.40;4.20;;;;;;;14.14;69.77;101859.25;6069228;23;20017;-66
2022/06/14 04:29:18;;;;;;;6.28;5.93;;;;;;;14.80;69.67;101849.84;6046179;23;20011;-67
2022/06/14 04:31:51;;;;;;;4.70;4.50;;;;;;;15.09;66.16;101858.88;6077173;23;20243;-68
2022/06/14 04:34:29;;;;;;;4.90;4.70;;;;;;;15.43;64.52;101843.88;6016912;23;20034;-66
2022/06/14 04:37:06;;;;;;;5.18;4.97;;;;;;;14.34;64.79;101864.41;6077623;23;20014;-66
2022/06/14 04:39:47;;;;;;;4.72;4.53;;;;;;;15.09;64.75;101862.38;6054059;23;20105;-66
2022/06/14 04:42:23;;;;;;;6.22;5.85;;;;;;;15.99;63.37;101861.06;6072028;23;20013;-67
2022/06/14 04:44:57;;;;;;;5.00;4.80;;;;;;;16.46;60.19;101831.00;6049495;23;20157;-67
2022/06/14 04:47:26;;;;;;;4.85;4.65;;;;;;;17.27;58.23;101861.53;6079990;23;20460;-66
2022/06/14 04:50:35;;;;;;;4.80;4.60;;;;;;;18.04;55.67;101851.38;6050801;23;20108;-67
2022/06/14 04:53:14;;;;;;;5.80;5.53;;;;;;;17.68;53.17;101828.88;6005597;23;20018;-68
2022/06/14 04:55:53;;;;;;;5.13;4.93;;;;;;;18.14;52.42;101863.97;6068072;23;20010;-67
2022/06/14 04:58:27;;;;;;;5.10;4.90;;;;;;;17.60;52.24;101861.25;6040086;23;20022;-67
2022/06/14 05:01:07;;;;;;;5.20;5.00;;;;;;;17.43;51.98;101787.97;6077086;23;20025;-66
2022/06/14 05:03:39;;;;;;;5.35;5.05;;;;;;;18.21;52.90;101856.44;6066105;23;20089;-68
2022/06/14 05:06:14;;;;;;;6.22;5.93;;;;;;;18.55;51.55;101870.16;6047469;23;20022;-68
2022/06/14 05:08:53;;;;;;;5.30;5.10;;;;;;;19.13;51.18;101860.00;6047295;23;20057;-68
2022/06/14 05:11:26;;;;;;;5.38;5.07;;;;;;;19.31;49.23;101861.38;6043648;23;20072;-67
2022/06/14 05:14:00;;;;;;;5.35;5.05;;;;;;;19.00;49.40;101865.31;6081655;23;20505;-68
2022/06/14 05:16:37;;;;;;;5.30;5.10;;;;;;;19.87;48.24;101839.66;6058450;23;20293;-68
2022/06/14 05:19:42;;;;;;;6.90;6.60;;;;;;;20.08;47.30;101871.84;6082469;23;20021;-69
2022/06/14 05:22:24;;;;;;;6.85;6.55;;;;;;;18.50;50.11;101869.59;6002251;23;20049;-68
2022/06/14 05:24:50;;;;;;;5.70;5.40;;;;;;;19.66;48.94;101859.81;6062142;23;20049;-68
2022/06/14 05:27:42;;;;;;;5.75;5.45;;;;;;;19.54;48.36;101874.84;6052858;23;20021;-68
2022/06/14 05:30:35;;;;;;;7.10;6.60;;;;;;;20.24;47.34;101876.03;6081632;23;20082;-68
2022/06/14 05:33:27;;;;;;;6.72;6.32;;;;;;;20.58;46.60;101874.34;6075239;23;20052;-69
2022/06/14 05:36:01;;;;;;;5.40;5.20;;;;;;;20.72;45.16;101876.00;6040914;23;20033;-69
2022/06/14 05:38:59;;;;;;;5.88;5.57;;;;;;;21.30;45.22;101870.63;6084450;23;20182;-68
2022/06/14 05:41:33;;;;;;;5.55;5.28;;;;;;;21.55;44.32;101874.03;6045291;23;20049;-69
2022/06/14 05:44:07;;;;;;;6.45;6.15;;;;;;;22.02;43.57;101872.84;6081119;23;20021;-67
2022/06/14 05:46:50;;;;;;;5.70;5.40;;;;;;;21.40;44.02;101830.69;6053423;23;20021;-68
2022/06/14 05:49:22;;;;;;;6.38;6.07;;;;;;;22.01;43.47;101876.50;6067803;23;20014;-66
2022/06/14 05:52:00;;;;;;;6.00;5.50;;;;;;;21.25;43.51;101729.50;6057316;23;20015;-67
2022/06/14 05:54:34;;;;;;;6.03;5.72;;;;;;;21.55;43.60;101872.22;6082639;23;20098;-66
2022/06/14 05:57:09;;;;;;;6.05;5.75;;;;;;;21.51;43.75;101850.25;6044541;23;20018;-68
2022/06/14 05:59:41;;;;;;;6.30;6.00;;;;;;;20.90;45.86;101863.06;6084570;23;20067;-66
2022/06/14 06:02:28;;;;;;;;;;;;;;;21.26;43.95;101870.00;6078213;23;20486;-67
2022/06/14 06:05:08;;;;;;;6.05;5.70;;;;;;;20.20;45.76;101827.44;6060453;23;19926;-66
2022/06/14 06:07:40;;;;;;;6.05;5.75;;;;;;;20.50;47.08;101876.75;6043417;23;20184;-67
2022/06/14 06:10:18;;;;;;;6.90;6.60;;;;;;;21.28;45.57;101872.56;6078724;23;20482;-67
2022/06/14 06:12:52;;;;;;;6.13;5.72;;;;;;;21.80;43.38;101873.75;6046156;23;20007;-67
2022/06/14 06:15:28;;;;;;;5.75;5.35;;;;;;;21.65;43.66;101843.81;6077777;23;20013;-67
2022/06/14 06:18:04;;;;;;;5.80;5.50;;;;;;;21.74;43.86;101882.28;6024870;23;20026;-68
2022/06/14 06:20:41;;;;;;;5.70;5.40;;;;;;;21.81;44.79;101879.94;6079089;23;20021;-67
2022/06/14 06:23:11;;;;;;;7.85;7.35;;;;;;;22.04;44.21;101880.75;6048353;23;20015;-67
2022/06/14 06:25:47;;;;;;;6.00;5.70;;;;;;;21.51;44.13;101882.31;6082117;23;20022;-67
2022/06/14 06:28:28;;;;;;;7.20;6.88;;;;;;;20.24;45.73;101858.22;6054096;23;20210;-68
2022/06/14 06:31:19;;;;;;;5.53;5.30;;;;;;;19.43;48.59;101886.28;6074233;23;20040;-67
2022/06/14 06:33:52;;;;;;;6.78;6.38;;;;;;;18.79;50.55;101893.38;6079654;23;20037;-68
2022/06/14 06:36:44;;;;;;;6.20;5.90;;;;;;;18.45;51.91;101890.31;6078813;23;20235;-67
2022/06/14 06:39:48;;;;;;;7.72;7.32;;;;;;;17.75;54.19;101870.03;6042005;23;20036;-67
2022/06/14 06:42:17;;;;;;;6.55;6.25;;;;;;;17.97;55.02;101898.75;6073963;23;20276;-67
2022/06/14 06:44:53;;;;;;;5.40;5.20;;;;;;;17.97;54.35;101896.09;6053839;23;20475;-67
2022/06/14 06:47:29;;;;;;;6.13;5.82;;;;;;;17.35;57.41;101846.84;6051915;23;20900;-67
2022/06/14 06:50:02;;;;;;;5.72;5.43;;;;;;;17.74;56.58;101892.22;6083727;23;20081;-66
2022/06/14 06:52:35;;;;;;;;;;;;;;;17.59;57.17;101893.19;6043743;23;20053;-67
2022/06/14 06:55:07;;;;;;;7.88;7.30;;;;;;;17.81;56.52;101882.06;6074531;23;19924;-67
2022/06/14 06:57:38;;;;;;;6.28;5.97;;;;;;;17.62;56.75;101839.88;6054769;23;20062;-66
2022/06/14 07:00:06;;;;;;;5.40;5.20;;;;;;;17.60;56.37;101895.75;6079999;23;20016;-67
2022/06/14 07:02:47;;;;;;;5.63;5.22;;;;;;;17.80;55.61;101898.94;6060220;23;20082;-66
2022/06/14 07:05:17;;;;;;;6.80;6.50;;;;;;;17.83;55.86;101896.97;6077159;23;20240;-67
2022/06/14 07:07:43;;;;;;;5.90;5.40;;;;;;;17.67;55.86;101890.91;6063370;23;20369;-67
2022/06/14 07:10:38;;;;;;;7.72;7.13;;;;;;;17.52;57.79;101890.06;6049313;23;20089;-66
2022/06/14 07:13:16;;;;;;;5.70;5.40;;;;;;;17.77;56.43;101892.00;6071838;23;20346;-66
2022/06/14 07:16:12;;;;;;;5.20;5.00;;;;;;;17.84;57.63;101893.38;6055998;23;20026;-67
2022/06/14 07:18:50;;;;;;;5.40;5.20;;;;;;;17.69;56.64;101892.50;6005572;23;20103;-67
2022/06/14 07:21:29;;;;;;;6.05;5.75;;;;;;;16.95;56.91;101715.84;6061380;23;20018;-67
2022/06/14 07:24:11;;;;;;;5.53;5.25;;;;;;;18.07;55.88;101853.84;6075608;23;20029;-66
2022/06/14 07:26:45;;;;;;;5.57;5.22;;;;;;;17.79;56.96;101898.09;6006882;23;20010;-67
2022/06/14 07:29:18;;;;;;;6.75;6.45;;;;;;;17.64;57.04;101860.09;6076115;23;20568;-67
2022/06/14 07:31:49;;;;;;;;;;;;;;;17.85;56.28;101899.53;6047840;23;20054;-67
2022/06/14 07:34:16;;;;;;;5.85;5.55;;;;;;;17.71;56.16;101871.16;6067649;23;20272;-67
2022/06/14 07:36:59;;;;;;;5.40;5.15;;;;;;;17.91;55.93;101897.31;6053283;23;20597;-66
2022/06/14 07:39:43;;;;;;;5.60;5.30;;;;;;;17.93;56.45;101907.84;6053307;23;20696;-67
2022/06/14 07:42:55;;;;;;;7.53;7.13;;;;;;;18.07;55.35;101899.00;6024806;23;20014;-67
2022/06/14 07:45:31;;;;;;;5.20;5.00;;;;;;;18.56;54.22;101898.41;6041538;23;20498;-67
2022/06/14 07:48:08;;;;;;;5.38;5.15;;;;;;;17.98;55.85;101868.59;6042807;23;20475;-67
2022/06/14 07:50:43;;;;;;;5.32;5.10;;;;;;;18.52;54.51;101899.59;6072514;23;20034;-67
2022/06/14 07:53:16;;;;;;;6.90;6.60;;;;;;;18.62;52.72;101891.84;6013907;23;20667;-67
2022/06/14 07:55:50;;;;;;;6.00;5.63;;;;;;;18.86;52.24;101892.03;6075874;23;20026;-67
2022/06/14 07:58:26;;;;;;;6.15;5.85;;;;;;;18.75;51.86;101892.72;6051233;23;20391;-67
2022/06/14 08:01:08;;;;;;;5.68;5.28;;;;;;;18.82;50.00;101854.16;6078609;23;20514;-67
2022/06/14 08:03:48;;;;;;;5.15;4.95;;;;;;;19.55;51.09;101886.38;6034086;23;20018;-67
2022/06/14 08:06:21;;;;;;;8.13;6.57;;;;;;;19.78;48.48;101882.94;6048444;23;20450;-68
2022/06/14 08:08:56;;;;;;;5.70;5.28;;;;;;;19.96;48.50;101875.41;6055882;23;20222;-66
2022/06/14 08:11:32;;;;;;;6.72;6.32;;;;;;;19.75;48.18;101858.34;6077844;23;20017;-67
2022/06/14 08:14:04;;;;;;;5.10;4.90;;;;;;;19.56;46.85;101880.91;6044009;23;20070;-67
2022/06/14 08:16:31;;;;;;;5.25;5.03;;;;;;;19.08;48.24;101865.66;6076865;23;20368;-67
2022/06/14 08:19:09;;;;;;;5.85;5.53;;;;;;;19.44;48.35;101881.81;6050755;23;20463;-66
2022/06/14 08:21:42;;;;;;;5.10;4.90;;;;;;;20.00;47.65;101879.53;6072919;23;20089;-66
2022/06/14 08:24:23;;;;;;;6.43;6.13;;;;;;;19.56;45.30;101880.09;6049044;23;20221;-67
2022/06/14 08:27:02;;;;;;;5.20;5.00;;;;;;;19.15;46.87;101868.75;6082414;23;20281;-67
2022/06/14 08:29:52;;;;;;;5.28;5.05;;;;;;;18.93;47.44;101877.34;6048802;23;20468;-67
2022/06/14 08:32:41;;;;;;;5.75;5.22;;;;;;;18.23;48.70;101805.88;6076263;23;21407;-67
2022/06/14 08:35:41;;;;;;;6.40;6.10;;;;;;;18.04;50.85;101868.19;6042680;23;20105;-67
2022/06/14 08:38:16;;;;;;;6.50;6.20;;;;;;;18.28;49.86;101868.38;6026858;23;20044;-67
2022/06/14 08:40:46;;;;;;;5.38;5.18;;;;;;;18.25;50.55;101865.91;6042635;23;20026;-67
2022/06/14 08:43:29;;;;;;;6.50;6.15;;;;;;;17.85;49.67;101860.53;6079626;23;20271;-67
2022/06/14 08:46:25;;;;;;;;;;;;;;;17.99;50.55;101856.16;6011848;23;20031;-67
2022/06/14 08:49:10;;;;;;;5.70;5.40;;;;;;;18.02;48.97;101858.59;6058017;23;20005;-66
2022/06/14 08:51:57;;;;;;;5.68;5.38;;;;;;;18.21;49.38;101847.63;6061291;23;20034;-67
2022/06/14 08:54:51;;;;;;;5.45;5.15;;;;;;;18.68;48.26;101852.41;6082794;23;20010;-66
2022/06/14 08:57:43;;;;;;;5.90;5.60;;;;;;;18.81;45.99;101846.28;6041735;23;20126;-67
2022/06/14 09:00:47;;;;;;;5.70;5.30;;;;;;;19.15;46.60;101844.78;6081640;23;20010;-68
2022/06/14 09:03:19;;;;;;;7.25;6.85;;;;;;;19.39;45.94;101844.88;6050359;23;20029;-68
2022/06/14 09:06:26;;;;;;;5.07;4.88;;;;;;;19.67;45.80;101841.06;6058358;23;20026;-67
2022/06/14 09:09:26;;;;;;;5.38;5.10;;;;;;;19.90;46.12;101835.91;6053140;23;20257;-67
2022/06/14 09:12:37;;;;;;;5.43;5.13;;;;;;;19.93;44.38;101838.34;6084190;23;20022;-66
2022/06/14 09:15:42;;;;;;;6.10;5.80;;;;;;;20.20;44.17;101837.25;5979581;23;20061;-67
2022/06/14 09:18:26;;;;;;;6.80;6.43;;;;;;;19.59;42.81;101835.44;6014618;23;20602;-67
2022/06/14 09:21:08;;;;;;;5.05;4.85;;;;;;;19.90;45.16;101833.22;6083466;23;20037;-67
2022/06/14 09:23:56;;;;;;;5.50;5.20;;;;;;;20.18;42.23;101845.34;6083789;23;20041;-67
2022/06/14 09:26:31;;;;;;;5.40;5.00;;;;;;;19.82;43.82;101838.28;6043972;23;20358;-66
2022/06/14 09:29:19;;;;;;;5.07;4.88;;;;;;;19.40;43.79;101837.72;6077506;23;20034;-66
2022/06/14 09:31:54;;;;;;;5.70;5.45;;;;;;;19.42;44.04;101833.13;6047360;23;20033;-67
2022/06/14 09:34:34;;;;;;;5.30;5.10;;;;;;;19.49;43.69;101840.59;6075624;23;20380;-67
2022/06/14 09:37:30;;;;;;;5.68;5.40;;;;;;;19.88;45.34;101832.50;6051371;23;20710;-74
2022/06/14 09:40:30;;;;;;;5.30;5.00;;;;;;;20.31;43.31;101810.66;6062108;23;20081;-76
2022/06/14 09:43:03;;;;;;;5.75;5.45;;;;;;;20.61;41.27;101838.66;6069013;23;20411;-67
2022/06/14 09:45:47;;;;;;;5.72;5.40;;;;;;;20.42;41.44;101831.16;6060732;23;20026;-71
2022/06/14 09:48:23;;;;;;;7.30;6.65;;;;;;;20.34;42.69;101837.06;6049687;23;20010;-66
2022/06/14 09:51:01;;;;;;;5.35;5.15;;;;;;;20.47;42.45;101829.84;6081576;23;20022;-66
2022/06/14 09:54:05;;;;;;;5.32;5.10;;;;;;;20.50;40.86;101832.25;6044236;23;20018;-71
2022/06/14 09:56:37;;;;;;;5.78;5.47;;;;;;;20.24;40.98;101839.56;6085201;23;20038;-73
2022/06/14 09:59:18;;;;;;;6.88;6.55;;;;;;;20.39;41.82;101839.41;6049780;23;20094;-70
2022/06/14 10:01:47;;;;;;;5.40;5.20;;;;;;;20.41;41.94;101826.81;6080112;23;20037;-67
2022/06/14 10:04:24;;;;;;;6.80;6.50;;;;;;;19.92;42.64;101802.00;6047514;23;20553;-67
2022/06/14 10:07:32;;;;;;;5.30;5.10;;;;;;;19.92;44.36;101821.53;6087148;23;20502;-68
2022/06/14 10:10:17;;;;;;;5.85;5.60;;;;;;;19.98;44.00;101814.03;6010443;23;20389;-67
2022/06/14 10:13:41;;;;;;;5.47;5.28;;;;;;;20.36;43.66;101816.47;6076122;23;20029;-67
2022/06/14 10:16:19;;;;;;;;;;;;;;;20.01;42.82;101819.13;5929411;24;20540;-67
2022/06/14 10:19:14;;;;;;;5.50;5.30;;;;;;;19.98;43.00;101814.88;5961022;23;20112;-67
2022/06/14 10:21:56;;;;;;;5.60;5.30;;;;;;;19.76;43.63;101794.28;6018829;23;20097;-67
2022/06/14 10:24:33;;;;;;;5.60;5.30;;;;;;;19.96;44.03;101811.47;6081812;23;20586;-74
2022/06/14 10:30:07;;;;;;;6.95;6.55;;;;;;;20.31;42.56;101802.66;6051930;23;20013;-73
2022/06/14 10:32:52;;;;;;;5.40;5.20;;;;;;;20.33;41.77;101803.38;6059146;23;20091;-70
2022/06/14 10:35:50;;;;;;;5.40;5.10;;;;;;;20.22;42.36;101798.84;6072990;23;20186;-73
2022/06/14 10:38:16;;;;;;;6.00;5.70;;;;;;;20.30;41.41;101803.59;6068691;23;21164;-70
2022/06/14 10:41:17;;;;;;;5.20;5.00;;;;;;;20.77;40.79;101803.59;6050669;23;20042;-67
2022/06/14 10:44:20;;;;;;;5.40;5.18;;;;;;;21.06;40.00;101794.16;6074649;23;20029;-68
2022/06/14 10:47:24;;;;;;;6.32;5.72;;;;;;;20.58;40.27;101790.84;6048336;23;20014;-66
2022/06/14 10:49:59;;;;;;;5.30;5.10;;;;;;;21.02;40.12;101782.03;6071354;23;20119;-69
2022/06/14 10:52:51;;;;;;;5.80;5.50;;;;;;;21.33;39.06;101779.59;6079191;23;20017;-69
2022/06/14 10:55:38;;;;;;;5.50;5.20;;;;;;;21.17;38.22;101779.13;6055623;23;20110;-66
2022/06/14 10:58:25;;;;;;;6.72;6.43;;;;;;;20.02;40.50;101605.81;6048330;23;20018;-69
2022/06/14 11:01:15;;;;;;;6.20;5.50;;;;;;;20.18;40.64;101772.56;6047928;23;20014;-66
2022/06/14 11:03:47;;;;;;;5.32;5.13;;;;;;;20.72;41.05;101769.28;6052915;23;20026;-73
2022/06/14 11:06:32;;;;;;;6.85;6.55;;;;;;;20.84;39.81;101786.16;6071099;23;20389;-73
2022/06/14 11:09:18;;;;;;;5.50;5.30;;;;;;;20.82;40.42;101764.09;6049835;23;20096;-68
2022/06/14 11:11:47;;;;;;;5.60;5.10;;;;;;;21.03;40.31;101766.91;6049231;23;20388;-67
2022/06/14 11:14:39;;;;;;;7.22;6.90;;;;;;;21.05;39.59;101765.78;6061862;23;20030;-69
2022/06/14 11:17:15;;;;;;;7.25;6.85;;;;;;;21.30;39.66;101758.47;6043204;23;20010;-67
2022/06/14 11:20:03;;;;;;;5.20;5.00;;;;;;;21.37;39.03;101749.00;6064282;23;20454;-72
2022/06/14 11:23:02;;;;;;;6.13;5.72;;;;;;;21.65;39.25;101744.94;6072632;23;20209;-67
2022/06/14 11:25:44;;;;;;;5.28;5.07;;;;;;;21.78;37.28;101691.31;6038093;23;20206;-67
2022/06/14 11:28:51;;;;;;;6.85;6.40;;;;;;;22.09;38.95;101740.38;6041975;23;20265;-67
2022/06/14 11:31:40;;;;;;;5.70;5.40;;;;;;;21.91;36.86;101750.78;6051555;23;20115;-72
2022/06/14 11:34:16;;;;;;;6.97;6.68;;;;;;;21.38;38.78;101732.00;6071612;23;20020;-72
2022/06/14 11:37:32;;;;;;;6.00;5.70;;;;;;;20.82;37.41;101711.56;6058890;23;20003;-67
2022/06/14 11:40:09;;;;;;;6.00;5.70;;;;;;;20.93;37.70;101740.09;6078468;23;20099;-73
2022/06/14 11:42:48;;;;;;;5.30;5.10;;;;;;;21.19;37.02;101727.31;6068687;23;20018;-72
2022/06/14 11:45:18;;;;;;;6.78;6.20;;;;;;;20.86;37.50;101734.38;6044061;23;20841;-68
2022/06/14 11:47:56;;;;;;;5.65;5.35;;;;;;;21.02;37.99;101731.31;6089974;23;20041;-67
2022/06/14 11:50:32;;;;;;;5.50;5.30;;;;;;;21.41;36.03;101738.91;6052980;23;20028;-67
2022/06/14 11:53:20;;;;;;;6.28;5.85;;;;;;;21.50;37.47;101711.47;6073588;23;20103;-67
2022/06/14 11:56:22;;;;;;;5.60;5.20;;;;;;;20.41;37.57;101549.50;6054823;23;20143;-67
2022/06/14 11:59:01;;;;;;;5.20;5.00;;;;;;;21.75;37.73;101701.41;6034679;23;20029;-67
2022/06/14 12:02:07;;;;;;;5.70;5.32;;;;;;;22.05;37.54;101708.66;6047710;23;20064;-74
2022/06/14 12:04:55;;;;;;;5.57;5.25;;;;;;;22.20;35.92;101706.53;6072854;23;20336;-67
2022/06/14 12:07:33;;;;;;;10.95;5.72;;;;;;;22.24;38.40;101660.72;6054188;23;20086;-67
2022/06/14 12:10:11;;;;;;;6.35;6.05;;;;;;;22.46;36.76;101701.66;6077260;23;20076;-67
2022/06/14 12:12:58;;;;;;;5.55;5.28;;;;;;;22.22;37.83;101702.75;6048971;23;20026;-67
2022/06/14 12:15:58;;;;;;;5.60;5.30;;;;;;;22.25;37.40;101697.19;6038749;23;20120;-67
2022/06/14 12:18:30;;;;;;;6.18;5.55;;;;;;;21.92;38.58;101688.34;6074415;23;20040;-67
2022/06/14 12:21:24;;;;;;;6.00;5.70;;;;;;;22.61;38.33;101662.84;6023661;23;20219;-67
2022/06/14 12:23:57;;;;;;;5.80;5.50;;;;;;;22.94;35.37;101692.97;6052170;23;20030;-67
2022/06/14 12:26:37;;;;;;;5.40;5.20;;;;;;;23.09;35.04;101696.13;6068396;23;20021;-67
2022/06/14 12:29:09;;;;;;;6.88;6.57;;;;;;;22.23;35.94;101653.66;6046382;23;20014;-70
2022/06/14 12:31:40;;;;;;;5.70;5.40;;;;;;;22.20;36.94;101685.16;6077758;23;20030;-72
2022/06/14 12:34:22;;;;;;;6.93;6.63;;;;;;;21.35;38.17;101629.91;6066634;23;20018;-67
2022/06/14 12:37:11;;;;;;;6.00;5.70;;;;;;;21.94;39.11;101682.03;6058540;23;20428;-67
2022/06/14 12:39:52;;;;;;;5.50;5.20;;;;;;;22.15;36.34;101673.97;6064381;23;20105;-67